Time,TemperatureF,DewpointF,PressureIn,WindDirection,WindDirectionDegrees,WindSpeedMPH,WindSpeedGustMPH,Humidity,HourlyPrecipIn,Conditions,Clouds,dailyrainin,SoftwareType,DateUTC
2013-07-20 00:02:00,84.0,70.0,29.84,SW,224,0.0,0.0,63,-99.99,,,0.00,,2013-07-20 04:02:00,
2013-07-20 00:12:00,84.0,70.0,29.84,SW,224,0.0,0.0,63,-99.99,,,0.00,,2013-07-20 04:12:00,
2013-07-20 00:33:00,83.0,70.0,29.84,SW,224,0.0,0.0,65,-99.99,,,0.00,,2013-07-20 04:33:00,
2013-07-20 00:52:00,83.0,71.0,29.85,SW,224,0.0,0.0,67,0.00,,,0.00,,2013-07-20 04:52:00,
2013-07-20 01:02:00,82.0,70.0,29.85,SW,224,0.0,0.0,68,0.00,,,0.00,,2013-07-20 05:02:00,
2013-07-20 01:12:00,82.0,70.0,29.85,SW,224,0.0,0.0,68,0.00,,,0.00,,2013-07-20 05:12:00,
2013-07-20 01:32:00,82.0,70.0,29.86,SW,224,0.0,0.0,67,0.00,,,0.00,,2013-07-20 05:32:00,
2013-07-20 01:52:00,82.0,68.0,29.86,SW,224,0.0,0.0,63,0.00,,,0.00,,2013-07-20 05:52:00,
2013-07-20 02:32:00,81.0,68.0,29.85,SW,224,0.0,0.0,64,0.00,,,0.00,,2013-07-20 06:32:00,
2013-07-20 02:43:00,81.0,68.0,29.85,SW,224,0.0,0.0,64,0.00,,,0.00,,2013-07-20 06:43:00,
2013-07-20 02:52:00,81.0,68.0,29.84,SW,224,0.0,0.0,64,0.00,,,0.00,,2013-07-20 06:52:00,
2013-07-20 03:01:00,81.0,68.0,29.84,SW,224,0.0,0.0,64,0.00,,,0.00,,2013-07-20 07:01:00,
2013-07-20 03:33:00,81.0,68.0,29.83,SW,224,0.0,0.0,65,0.00,,,0.00,,2013-07-20 07:33:00,
2013-07-20 03:44:00,81.0,68.0,29.83,SW,224,0.0,0.0,65,0.00,,,0.00,,2013-07-20 07:44:00,
2013-07-20 03:54:00,81.0,68.0,29.83,SW,224,0.0,0.0,65,0.00,,,0.00,,2013-07-20 07:54:00,
2013-07-20 04:02:00,80.0,67.0,29.82,SW,224,0.0,0.0,65,0.00,,,0.00,,2013-07-20 08:02:00,
2013-07-20 04:22:00,80.0,68.0,29.81,SW,224,0.0,0.0,66,0.00,,,0.00,,2013-07-20 08:22:00,
2013-07-20 04:32:00,80.0,68.0,29.81,SW,224,0.0,0.0,66,0.00,,,0.00,,2013-07-20 08:32:00,
2013-07-20 04:44:00,80.0,68.0,29.81,SW,224,0.0,0.0,67,0.00,,,0.00,,2013-07-20 08:44:00,
2013-07-20 04:52:00,80.0,68.0,29.80,SW,224,0.0,0.0,67,0.00,,,0.00,,2013-07-20 08:52:00,
2013-07-20 05:02:00,79.0,68.0,29.80,SW,224,0.0,0.0,68,0.00,,,0.00,,2013-07-20 09:02:00,
2013-07-20 05:22:00,79.0,68.0,29.81,SW,224,0.0,0.0,70,0.00,,,0.00,,2013-07-20 09:22:00,
2013-07-20 05:33:00,78.0,68.0,29.81,SW,224,0.0,0.0,71,0.00,,,0.00,,2013-07-20 09:33:00,
2013-07-20 05:43:00,78.0,68.0,29.82,SW,224,0.0,0.0,71,0.00,,,0.00,,2013-07-20 09:43:00,
2013-07-20 05:53:00,78.0,68.0,29.82,SW,224,0.0,0.0,71,0.00,,,0.00,,2013-07-20 09:53:00,
2013-07-20 06:01:00,78.0,68.0,29.82,SW,224,0.0,0.0,71,0.00,,,0.00,,2013-07-20 10:01:00,
2013-07-20 06:32:00,78.0,68.0,29.83,SW,224,0.0,0.0,71,0.00,,,0.00,,2013-07-20 10:32:00,
2013-07-20 06:42:00,79.0,68.0,29.83,SW,224,0.0,0.0,70,0.00,,,0.00,,2013-07-20 10:42:00,
2013-07-20 06:52:00,79.0,68.0,29.83,SW,224,0.0,0.0,70,0.00,,,0.00,,2013-07-20 10:52:00,
2013-07-20 07:02:00,79.0,68.0,29.83,SW,224,0.0,0.0,70,0.00,,,0.00,,2013-07-20 11:02:00,
2013-07-20 07:22:00,79.0,68.0,29.83,SW,224,0.0,0.0,69,0.00,,,0.00,,2013-07-20 11:22:00,
2013-07-20 07:32:00,79.0,68.0,29.84,SW,224,0.0,0.0,69,0.00,,,0.00,,2013-07-20 11:32:00,
2013-07-20 07:52:00,79.0,68.0,29.84,SW,224,0.0,0.0,69,0.00,,,0.00,,2013-07-20 11:52:00,
2013-07-20 08:11:00,79.0,67.0,29.85,SW,224,0.0,0.0,67,0.00,,,0.00,,2013-07-20 12:11:00,
2013-07-20 08:22:00,79.0,67.0,29.85,SW,224,0.0,0.0,67,0.00,,,0.00,,2013-07-20 12:22:00,
2013-07-20 08:32:00,79.0,67.0,29.85,SW,224,0.0,0.0,66,0.00,,,0.00,,2013-07-20 12:32:00,
2013-07-20 08:52:00,80.0,68.0,29.84,SW,224,0.0,0.0,66,0.00,,,0.00,,2013-07-20 12:52:00,
2013-07-20 09:02:00,80.0,68.0,29.84,SW,224,0.0,0.0,66,0.00,,,0.00,,2013-07-20 13:02:00,
2013-07-20 09:11:00,81.0,68.0,29.83,SW,224,0.0,0.0,65,0.00,,,0.00,,2013-07-20 13:11:00,
2013-07-20 09:32:00,81.0,68.0,29.84,SW,224,0.0,0.0,64,0.00,,,0.00,,2013-07-20 13:32:00,
2013-07-20 09:43:00,81.0,68.0,29.83,SW,224,0.0,0.0,64,0.00,,,0.00,,2013-07-20 13:43:00,
2013-07-20 09:53:00,83.0,69.0,29.83,SW,224,0.0,0.0,62,0.00,,,0.00,,2013-07-20 13:53:00,
2013-07-20 10:02:00,83.0,68.0,29.83,SW,224,0.0,0.0,60,0.00,,,0.00,,2013-07-20 14:02:00,
2013-07-20 10:11:00,83.0,68.0,29.83,SW,224,0.0,0.0,60,0.00,,,0.00,,2013-07-20 14:11:00,
2013-07-20 10:32:00,85.0,68.0,29.83,SW,224,0.0,3.0,57,0.00,,,0.00,,2013-07-20 14:32:00,
2013-07-20 10:43:00,85.0,68.0,29.83,SW,224,0.0,0.0,57,0.00,,,0.00,,2013-07-20 14:43:00,
2013-07-20 11:01:00,86.0,67.0,29.83,SW,224,0.0,0.0,54,0.00,,,0.00,,2013-07-20 15:01:00,
2013-07-20 11:11:00,86.0,68.0,29.82,SW,224,0.0,0.0,55,0.00,,,0.00,,2013-07-20 15:11:00,
2013-07-20 11:23:00,87.0,67.0,29.81,SW,224,0.0,0.0,52,0.00,,,0.00,,2013-07-20 15:23:00,
2013-07-20 11:33:00,87.0,67.0,29.81,SW,224,0.0,0.0,52,0.00,,,0.00,,2013-07-20 15:33:00,
2013-07-20 11:44:00,88.0,68.0,29.80,SW,224,0.0,0.0,52,0.00,,,0.00,,2013-07-20 15:44:00,
2013-07-20 11:53:00,88.0,66.0,29.80,SW,224,0.0,0.0,49,0.00,,,0.00,,2013-07-20 15:53:00,
2013-07-20 12:01:00,89.0,67.0,29.80,SW,224,0.0,0.0,48,0.00,,,0.00,,2013-07-20 16:01:00,
2013-07-20 12:11:00,88.0,67.0,29.80,SW,224,0.0,0.0,50,0.00,,,0.00,,2013-07-20 16:11:00,
2013-07-20 12:22:00,89.0,68.0,29.80,SW,224,0.0,0.0,51,0.00,,,0.00,,2013-07-20 16:22:00,
2013-07-20 12:43:00,89.0,68.0,29.79,SW,224,0.0,0.0,50,0.00,,,0.00,,2013-07-20 16:43:00,
2013-07-20 12:52:00,89.0,68.0,29.79,SW,224,0.0,0.0,50,0.00,,,0.00,,2013-07-20 16:52:00,
2013-07-20 13:02:00,89.0,68.0,29.79,SW,224,0.0,0.0,50,0.00,,,0.00,,2013-07-20 17:02:00,
2013-07-20 13:11:00,89.0,68.0,29.79,SW,224,0.0,0.0,50,0.00,,,0.00,,2013-07-20 17:11:00,
2013-07-20 16:06:00,91.0,67.0,29.78,NW,316,0.0,0.0,45,-99.99,,,0.00,,2013-07-20 20:06:00,
2013-07-20 16:16:00,92.0,68.0,29.78,West,267,0.0,0.0,45,-99.99,,,0.00,,2013-07-20 20:16:00,
2013-07-20 16:24:00,92.0,68.0,29.78,West,267,0.0,0.0,45,-99.99,,,0.00,,2013-07-20 20:24:00,
2013-07-20 16:46:00,91.0,65.0,29.78,West,266,0.0,0.0,43,-99.99,,,0.00,,2013-07-20 20:46:00,
2013-07-20 16:56:00,91.0,66.0,29.78,WSW,242,0.0,0.0,44,-99.99,,,0.00,,2013-07-20 20:56:00,
2013-07-20 17:07:00,90.0,66.0,29.78,West,270,0.0,0.0,46,0.00,,,0.00,,2013-07-20 21:07:00,
2013-07-20 17:15:00,89.0,66.0,29.78,West,270,0.0,0.0,47,0.00,,,0.00,,2013-07-20 21:15:00,
2013-07-20 17:28:00,85.0,70.0,29.80,West,270,0.0,0.0,61,0.00,,,0.00,,2013-07-20 21:28:00,
2013-07-20 18:27:00,82.0,69.0,29.79,West,270,0.0,0.0,64,0.00,,,0.01,,2013-07-20 22:27:00,
2013-07-20 18:48:00,81.0,67.0,29.79,West,270,0.0,0.0,63,0.00,,,0.01,,2013-07-20 22:48:00,
2013-07-20 18:55:00,81.0,67.0,29.79,West,270,0.0,0.0,62,0.00,,,0.01,,2013-07-20 22:55:00,
2013-07-20 19:06:00,81.0,68.0,29.80,West,270,0.0,0.0,64,0.00,,,0.01,,2013-07-20 23:06:00,
2013-07-20 19:17:00,81.0,68.0,29.80,West,270,0.0,0.0,64,0.00,,,0.01,,2013-07-20 23:17:00,
2013-07-20 19:29:00,81.0,67.0,29.80,West,270,0.0,0.0,63,0.00,,,0.01,,2013-07-20 23:29:00,
2013-07-20 19:45:00,81.0,68.0,29.80,West,270,0.0,0.0,65,0.00,,,0.01,,2013-07-20 23:45:00,
2013-07-20 19:56:00,80.0,68.0,29.81,West,270,0.0,0.0,67,0.00,,,0.01,,2013-07-20 23:56:00,
2013-07-20 20:09:00,80.0,68.0,29.82,West,270,0.0,0.0,68,0.00,,,-99.99,,2013-07-21 00:09:00,
2013-07-20 20:18:00,79.0,68.0,29.83,West,270,0.0,0.0,69,0.00,,,-99.99,,2013-07-21 00:18:00,
2013-07-20 20:24:00,79.0,68.0,29.83,West,270,0.0,0.0,69,0.00,,,-99.99,,2013-07-21 00:24:00,
2013-07-20 20:45:00,78.0,68.0,29.83,West,270,0.0,0.0,72,0.00,,,-99.99,,2013-07-21 00:45:00,
2013-07-20 20:55:00,78.0,68.0,29.83,West,270,0.0,0.0,72,0.00,,,-99.99,,2013-07-21 00:55:00,
2013-07-20 21:07:00,78.0,68.0,29.84,West,270,0.0,0.0,72,0.00,,,-99.99,,2013-07-21 01:07:00,
2013-07-20 21:28:00,78.0,69.0,29.85,West,270,0.0,0.0,73,0.00,,,-99.99,,2013-07-21 01:28:00,
2013-07-20 21:36:00,78.0,68.0,29.85,West,270,0.0,0.0,72,0.00,,,-99.99,,2013-07-21 01:36:00,
2013-07-20 21:48:00,-999.0,-99.9,29.85,West,270,0.0,0.0,-999,-99.99,,,-99.99,,2013-07-21 01:48:00,
2013-07-20 22:06:00,77.0,68.0,29.85,West,270,0.0,0.0,74,0.00,,,-99.99,,2013-07-21 02:06:00,
2013-07-20 22:19:00,77.0,68.0,29.85,West,270,0.0,0.0,75,0.00,,,-99.99,,2013-07-21 02:19:00,
2013-07-20 22:37:00,76.0,67.0,29.86,West,270,0.0,0.0,75,0.00,,,-99.99,,2013-07-21 02:37:00,
2013-07-20 22:55:00,76.0,68.0,29.86,West,270,0.0,0.0,77,0.00,,,-99.99,,2013-07-21 02:55:00,
2013-07-20 23:05:00,76.0,69.0,29.86,West,270,0.0,0.0,78,0.00,,,-99.99,,2013-07-21 03:05:00,
2013-07-20 23:15:00,76.0,69.0,29.87,West,270,0.0,0.0,79,0.00,,,-99.99,,2013-07-21 03:15:00,
2013-07-20 23:26:00,76.0,69.0,29.87,West,270,0.0,0.0,79,0.00,,,-99.99,,2013-07-21 03:26:00,
2013-07-20 23:36:00,76.0,69.0,29.88,West,270,0.0,0.0,79,0.00,,,-99.99,,2013-07-21 03:36:00,
2013-07-20 23:57:00,75.0,68.0,29.88,West,270,0.0,0.0,79,0.00,,,0.01,,2013-07-21 03:57:00,